sensor_id;sensor_type;location;lat;lon;timestamp;temperature;humidity
49579;DHT22;35483;50.828;3.228;2024-01-15T00:02:17;4.30;99.90
49579;DHT22;35483;50.828;3.228;2024-01-15T00:04:44;4.30;99.90
49579;DHT22;35483;50.828;3.228;2024-01-15T00:07:10;4.30;99.90
49579;DHT22;35483;50.828;3.228;2024-01-15T00:09:36;4.30;99.90
49579;DHT22;35483;50.828;3.228;2024-01-15T00:12:02;4.30;99.90
49579;DHT22;35483;50.828;3.228;2024-01-15T00:14:28;4.40;99.90
49579;DHT22;35483;50.828;3.228;2024-01-15T00:16:54;4.40;99.90
49579;DHT22;35483;50.828;3.228;2024-01-15T00:19:24;4.40;99.90
49579;DHT22;35483;50.828;3.228;2024-01-15T00:21:50;4.40;99.90
49579;DHT22;35483;50.828;3.228;2024-01-15T00:24:17;4.40;99.90
49579;DHT22;35483;50.828;3.228;2024-01-15T00:26:42;4.40;99.90
49579;DHT22;35483;50.828;3.228;2024-01-15T00:29:08;4.40;99.90
49579;DHT22;35483;50.828;3.228;2024-01-15T00:31:36;4.40;99.90
49579;DHT22;35483;50.828;3.228;2024-01-15T00:34:02;4.40;99.90
49579;DHT22;35483;50.828;3.228;2024-01-15T00:36:28;4.40;99.90
49579;DHT22;35483;50.828;3.228;2024-01-15T00:38:54;4.40;99.90
49579;DHT22;35483;50.828;3.228;2024-01-15T00:41:20;4.40;99.90
49579;DHT22;35483;50.828;3.228;2024-01-15T00:43:46;4.40;99.90
49579;DHT22;35483;50.828;3.228;2024-01-15T00:46:12;4.40;99.90
49579;DHT22;35483;50.828;3.228;2024-01-15T00:48:38;4.50;99.90
49579;DHT22;35483;50.828;3.228;2024-01-15T00:51:04;4.50;99.90
49579;DHT22;35483;50.828;3.228;2024-01-15T00:53:30;4.40;99.90
49579;DHT22;35483;50.828;3.228;2024-01-15T00:55:56;4.50;99.90
49579;DHT22;35483;50.828;3.228;2024-01-15T00:58:22;4.50;99.90
49579;DHT22;35483;50.828;3.228;2024-01-15T01:00:49;4.50;99.90
49579;DHT22;35483;50.828;3.228;2024-01-15T01:03:16;4.50;99.90
49579;DHT22;35483;50.828;3.228;2024-01-15T01:05:41;4.50;99.90
49579;DHT22;35483;50.828;3.228;2024-01-15T01:08:07;4.50;99.90
49579;DHT22;35483;50.828;3.228;2024-01-15T01:10:33;4.50;99.90
49579;DHT22;35483;50.828;3.228;2024-01-15T01:12:59;4.50;99.90
49579;DHT22;35483;50.828;3.228;2024-01-15T01:15:24;4.50;99.90
49579;DHT22;35483;50.828;3.228;2024-01-15T01:17:50;4.50;99.90
49579;DHT22;35483;50.828;3.228;2024-01-15T01:20:16;4.50;99.90
49579;DHT22;35483;50.828;3.228;2024-01-15T01:22:42;4.50;99.90
49579;DHT22;35483;50.828;3.228;2024-01-15T01:25:08;4.50;99.90
49579;DHT22;35483;50.828;3.228;2024-01-15T01:27:35;4.50;99.90
49579;DHT22;35483;50.828;3.228;2024-01-15T01:30:01;4.50;99.90
49579;DHT22;35483;50.828;3.228;2024-01-15T01:32:27;4.50;99.90
49579;DHT22;35483;50.828;3.228;2024-01-15T01:34:53;4.50;99.90
49579;DHT22;35483;50.828;3.228;2024-01-15T01:37:19;4.50;99.90
49579;DHT22;35483;50.828;3.228;2024-01-15T01:39:45;4.50;99.90
49579;DHT22;35483;50.828;3.228;2024-01-15T01:42:12;4.60;99.90
49579;DHT22;35483;50.828;3.228;2024-01-15T01:44:38;4.50;99.90
49579;DHT22;35483;50.828;3.228;2024-01-15T01:47:04;4.50;99.90
49579;DHT22;35483;50.828;3.228;2024-01-15T01:49:30;4.50;99.90
49579;DHT22;35483;50.828;3.228;2024-01-15T01:51:57;4.50;99.90
49579;DHT22;35483;50.828;3.228;2024-01-15T01:54:25;4.50;99.90
49579;DHT22;35483;50.828;3.228;2024-01-15T01:56:52;4.50;99.90
49579;DHT22;35483;50.828;3.228;2024-01-15T01:59:18;4.40;99.90
49579;DHT22;35483;50.828;3.228;2024-01-15T02:01:46;4.40;99.90
49579;DHT22;35483;50.828;3.228;2024-01-15T02:04:14;4.50;99.90
49579;DHT22;35483;50.828;3.228;2024-01-15T02:06:40;4.50;99.90
49579;DHT22;35483;50.828;3.228;2024-01-15T02:09:07;4.50;99.90
49579;DHT22;35483;50.828;3.228;2024-01-15T02:11:33;4.50;99.90
49579;DHT22;35483;50.828;3.228;2024-01-15T02:14:01;4.50;99.90
49579;DHT22;35483;50.828;3.228;2024-01-15T02:16:26;4.50;99.90
49579;DHT22;35483;50.828;3.228;2024-01-15T02:18:52;4.50;99.90
49579;DHT22;35483;50.828;3.228;2024-01-15T02:21:18;4.50;99.90
49579;DHT22;35483;50.828;3.228;2024-01-15T02:23:43;4.50;99.90
49579;DHT22;35483;50.828;3.228;2024-01-15T02:26:10;4.50;99.90
49579;DHT22;35483;50.828;3.228;2024-01-15T02:28:38;4.50;99.90
49579;DHT22;35483;50.828;3.228;2024-01-15T02:31:04;4.50;99.90
49579;DHT22;35483;50.828;3.228;2024-01-15T02:33:30;4.50;99.90
49579;DHT22;35483;50.828;3.228;2024-01-15T02:35:55;4.50;99.90
49579;DHT22;35483;50.828;3.228;2024-01-15T02:38:21;4.50;99.90
49579;DHT22;35483;50.828;3.228;2024-01-15T02:40:47;4.50;99.90
49579;DHT22;35483;50.828;3.228;2024-01-15T02:43:13;4.50;99.90
49579;DHT22;35483;50.828;3.228;2024-01-15T02:45:39;4.50;99.90
49579;DHT22;35483;50.828;3.228;2024-01-15T02:48:05;4.50;99.90
49579;DHT22;35483;50.828;3.228;2024-01-15T02:50:31;4.50;99.90
49579;DHT22;35483;50.828;3.228;2024-01-15T02:52:57;4.50;99.90
49579;DHT22;35483;50.828;3.228;2024-01-15T02:55:23;4.50;99.90
49579;DHT22;35483;50.828;3.228;2024-01-15T02:57:50;4.50;99.90
49579;DHT22;35483;50.828;3.228;2024-01-15T03:00:16;4.40;99.90
49579;DHT22;35483;50.828;3.228;2024-01-15T03:02:45;4.50;99.90
49579;DHT22;35483;50.828;3.228;2024-01-15T03:05:11;4.50;99.90
49579;DHT22;35483;50.828;3.228;2024-01-15T03:07:36;4.50;99.90
49579;DHT22;35483;50.828;3.228;2024-01-15T03:10:02;4.50;99.90
49579;DHT22;35483;50.828;3.228;2024-01-15T03:12:28;4.40;99.90
49579;DHT22;35483;50.828;3.228;2024-01-15T03:14:54;4.40;99.90
49579;DHT22;35483;50.828;3.228;2024-01-15T03:17:20;4.40;99.90
49579;DHT22;35483;50.828;3.228;2024-01-15T03:19:46;4.40;99.90
49579;DHT22;35483;50.828;3.228;2024-01-15T03:22:12;4.40;99.90
49579;DHT22;35483;50.828;3.228;2024-01-15T03:24:38;4.40;99.90
49579;DHT22;35483;50.828;3.228;2024-01-15T03:27:04;4.40;99.90
49579;DHT22;35483;50.828;3.228;2024-01-15T03:29:31;4.40;99.90
49579;DHT22;35483;50.828;3.228;2024-01-15T03:31:56;4.50;99.90
49579;DHT22;35483;50.828;3.228;2024-01-15T03:34:22;4.40;99.90
49579;DHT22;35483;50.828;3.228;2024-01-15T03:36:48;4.50;99.90
49579;DHT22;35483;50.828;3.228;2024-01-15T03:39:14;4.50;99.90
49579;DHT22;35483;50.828;3.228;2024-01-15T03:41:40;4.50;99.90
49579;DHT22;35483;50.828;3.228;2024-01-15T03:44:05;4.50;99.90
49579;DHT22;35483;50.828;3.228;2024-01-15T03:46:31;4.50;99.90
49579;DHT22;35483;50.828;3.228;2024-01-15T03:48:57;4.50;99.90
49579;DHT22;35483;50.828;3.228;2024-01-15T03:51:23;4.50;99.90
49579;DHT22;35483;50.828;3.228;2024-01-15T03:53:49;4.50;99.90
49579;DHT22;35483;50.828;3.228;2024-01-15T03:56:15;4.50;99.90
49579;DHT22;35483;50.828;3.228;2024-01-15T03:58:40;4.50;99.90
49579;DHT22;35483;50.828;3.228;2024-01-15T04:01:10;4.50;99.90
49579;DHT22;35483;50.828;3.228;2024-01-15T04:03:36;4.60;99.90
49579;DHT22;35483;50.828;3.228;2024-01-15T04:06:04;4.60;99.90
49579;DHT22;35483;50.828;3.228;2024-01-15T04:08:30;4.60;99.90
49579;DHT22;35483;50.828;3.228;2024-01-15T04:10:56;4.60;99.90
49579;DHT22;35483;50.828;3.228;2024-01-15T04:13:22;4.60;99.90
49579;DHT22;35483;50.828;3.228;2024-01-15T04:15:47;4.60;99.90
49579;DHT22;35483;50.828;3.228;2024-01-15T04:18:13;4.60;99.90
49579;DHT22;35483;50.828;3.228;2024-01-15T04:20:39;4.60;99.90
49579;DHT22;35483;50.828;3.228;2024-01-15T04:23:05;4.50;99.90
49579;DHT22;35483;50.828;3.228;2024-01-15T04:25:31;4.50;99.90
49579;DHT22;35483;50.828;3.228;2024-01-15T04:27:56;4.50;99.90
49579;DHT22;35483;50.828;3.228;2024-01-15T04:30:23;4.50;99.90
49579;DHT22;35483;50.828;3.228;2024-01-15T04:32:49;4.50;99.90
49579;DHT22;35483;50.828;3.228;2024-01-15T04:35:15;4.40;99.90
49579;DHT22;35483;50.828;3.228;2024-01-15T04:37:41;4.40;99.90
49579;DHT22;35483;50.828;3.228;2024-01-15T04:40:08;4.40;99.90
49579;DHT22;35483;50.828;3.228;2024-01-15T04:42:34;4.40;99.90
49579;DHT22;35483;50.828;3.228;2024-01-15T04:45:00;4.40;99.90
49579;DHT22;35483;50.828;3.228;2024-01-15T04:47:25;4.40;99.90
49579;DHT22;35483;50.828;3.228;2024-01-15T04:49:51;4.40;99.90
49579;DHT22;35483;50.828;3.228;2024-01-15T04:52:17;4.40;99.90
49579;DHT22;35483;50.828;3.228;2024-01-15T04:54:42;4.40;99.90
49579;DHT22;35483;50.828;3.228;2024-01-15T04:57:08;4.40;99.90
49579;DHT22;35483;50.828;3.228;2024-01-15T04:59:34;4.40;99.90
49579;DHT22;35483;50.828;3.228;2024-01-15T05:02:01;4.40;99.90
49579;DHT22;35483;50.828;3.228;2024-01-15T05:04:26;4.40;99.90
49579;DHT22;35483;50.828;3.228;2024-01-15T05:06:53;4.40;99.90
49579;DHT22;35483;50.828;3.228;2024-01-15T05:09:20;4.40;99.90
49579;DHT22;35483;50.828;3.228;2024-01-15T05:11:46;4.40;99.90
49579;DHT22;35483;50.828;3.228;2024-01-15T05:14:11;4.40;99.90
49579;DHT22;35483;50.828;3.228;2024-01-15T05:16:56;4.30;99.90
49579;DHT22;35483;50.828;3.228;2024-01-15T05:19:22;4.30;99.90
49579;DHT22;35483;50.828;3.228;2024-01-15T05:21:48;4.30;99.90
49579;DHT22;35483;50.828;3.228;2024-01-15T05:24:13;4.30;99.90
49579;DHT22;35483;50.828;3.228;2024-01-15T05:26:39;4.30;99.90
49579;DHT22;35483;50.828;3.228;2024-01-15T05:29:06;4.30;99.90
49579;DHT22;35483;50.828;3.228;2024-01-15T05:31:31;4.30;99.90
49579;DHT22;35483;50.828;3.228;2024-01-15T05:33:57;4.30;99.90
49579;DHT22;35483;50.828;3.228;2024-01-15T05:36:23;4.20;99.90
49579;DHT22;35483;50.828;3.228;2024-01-15T05:38:48;4.30;99.90
49579;DHT22;35483;50.828;3.228;2024-01-15T05:41:15;4.30;99.90
49579;DHT22;35483;50.828;3.228;2024-01-15T05:43:41;4.30;99.90
49579;DHT22;35483;50.828;3.228;2024-01-15T05:46:06;4.20;99.90
49579;DHT22;35483;50.828;3.228;2024-01-15T05:48:33;4.20;99.90
49579;DHT22;35483;50.828;3.228;2024-01-15T05:50:59;4.20;99.90
49579;DHT22;35483;50.828;3.228;2024-01-15T05:53:25;4.20;99.90
49579;DHT22;35483;50.828;3.228;2024-01-15T05:55:50;4.20;99.90
49579;DHT22;35483;50.828;3.228;2024-01-15T05:58:16;4.20;99.90
49579;DHT22;35483;50.828;3.228;2024-01-15T06:00:42;4.20;99.90
49579;DHT22;35483;50.828;3.228;2024-01-15T06:03:08;4.20;99.90
49579;DHT22;35483;50.828;3.228;2024-01-15T06:05:33;4.20;99.90
49579;DHT22;35483;50.828;3.228;2024-01-15T06:07:59;4.30;99.90
49579;DHT22;35483;50.828;3.228;2024-01-15T06:10:25;4.20;99.90
49579;DHT22;35483;50.828;3.228;2024-01-15T06:12:52;4.20;99.90
49579;DHT22;35483;50.828;3.228;2024-01-15T06:15:17;4.20;99.90
49579;DHT22;35483;50.828;3.228;2024-01-15T06:17:43;4.30;99.90
49579;DHT22;35483;50.828;3.228;2024-01-15T06:20:10;4.30;99.90
49579;DHT22;35483;50.828;3.228;2024-01-15T06:22:36;4.30;99.90
49579;DHT22;35483;50.828;3.228;2024-01-15T06:25:02;4.30;99.90
49579;DHT22;35483;50.828;3.228;2024-01-15T06:27:28;4.30;99.90
49579;DHT22;35483;50.828;3.228;2024-01-15T06:29:54;4.30;99.90
49579;DHT22;35483;50.828;3.228;2024-01-15T06:32:21;4.30;99.90
49579;DHT22;35483;50.828;3.228;2024-01-15T06:34:47;4.20;99.90
49579;DHT22;35483;50.828;3.228;2024-01-15T06:37:13;4.30;99.90
49579;DHT22;35483;50.828;3.228;2024-01-15T06:39:38;4.30;99.90
49579;DHT22;35483;50.828;3.228;2024-01-15T06:42:04;4.30;99.90
49579;DHT22;35483;50.828;3.228;2024-01-15T06:44:30;4.20;99.90
49579;DHT22;35483;50.828;3.228;2024-01-15T06:46:56;4.20;99.90
49579;DHT22;35483;50.828;3.228;2024-01-15T06:49:23;4.20;99.90
49579;DHT22;35483;50.828;3.228;2024-01-15T06:51:48;4.10;99.90
49579;DHT22;35483;50.828;3.228;2024-01-15T06:54:14;4.00;99.90
49579;DHT22;35483;50.828;3.228;2024-01-15T06:56:40;3.90;99.90
49579;DHT22;35483;50.828;3.228;2024-01-15T06:59:06;3.70;99.90
49579;DHT22;35483;50.828;3.228;2024-01-15T07:01:32;3.60;99.90
49579;DHT22;35483;50.828;3.228;2024-01-15T07:03:58;3.50;99.90
49579;DHT22;35483;50.828;3.228;2024-01-15T07:06:24;3.40;99.90
49579;DHT22;35483;50.828;3.228;2024-01-15T07:08:49;3.20;99.90
49579;DHT22;35483;50.828;3.228;2024-01-15T07:11:15;3.30;99.90
49579;DHT22;35483;50.828;3.228;2024-01-15T07:13:41;3.10;99.90
49579;DHT22;35483;50.828;3.228;2024-01-15T07:16:07;3.10;99.90
49579;DHT22;35483;50.828;3.228;2024-01-15T07:18:32;3.00;99.90
49579;DHT22;35483;50.828;3.228;2024-01-15T07:20:58;3.00;99.90
49579;DHT22;35483;50.828;3.228;2024-01-15T07:23:24;2.90;99.90
49579;DHT22;35483;50.828;3.228;2024-01-15T07:25:50;2.90;99.90
49579;DHT22;35483;50.828;3.228;2024-01-15T07:28:16;2.80;99.90
49579;DHT22;35483;50.828;3.228;2024-01-15T07:30:41;2.90;99.90
49579;DHT22;35483;50.828;3.228;2024-01-15T07:33:07;2.80;99.90
49579;DHT22;35483;50.828;3.228;2024-01-15T07:35:33;2.80;99.90
49579;DHT22;35483;50.828;3.228;2024-01-15T07:37:59;2.80;99.90
49579;DHT22;35483;50.828;3.228;2024-01-15T07:40:25;2.70;99.90
49579;DHT22;35483;50.828;3.228;2024-01-15T07:42:51;2.70;99.90
49579;DHT22;35483;50.828;3.228;2024-01-15T07:45:17;2.60;99.90
49579;DHT22;35483;50.828;3.228;2024-01-15T07:47:43;2.70;99.90
49579;DHT22;35483;50.828;3.228;2024-01-15T07:50:10;2.60;99.90
49579;DHT22;35483;50.828;3.228;2024-01-15T07:52:36;2.60;99.90
49579;DHT22;35483;50.828;3.228;2024-01-15T07:55:01;2.60;99.90
49579;DHT22;35483;50.828;3.228;2024-01-15T07:57:29;2.60;99.90
49579;DHT22;35483;50.828;3.228;2024-01-15T07:59:54;2.60;99.90
49579;DHT22;35483;50.828;3.228;2024-01-15T08:02:20;2.60;99.90
49579;DHT22;35483;50.828;3.228;2024-01-15T08:04:47;2.60;99.90
49579;DHT22;35483;50.828;3.228;2024-01-15T08:07:13;2.70;99.90
49579;DHT22;35483;50.828;3.228;2024-01-15T08:09:38;2.60;99.90
49579;DHT22;35483;50.828;3.228;2024-01-15T08:12:06;2.60;99.90
49579;DHT22;35483;50.828;3.228;2024-01-15T08:14:32;2.60;99.90
49579;DHT22;35483;50.828;3.228;2024-01-15T08:16:58;2.70;99.90
49579;DHT22;35483;50.828;3.228;2024-01-15T08:19:24;2.70;99.90
49579;DHT22;35483;50.828;3.228;2024-01-15T08:21:50;2.70;99.90
49579;DHT22;35483;50.828;3.228;2024-01-15T08:24:16;2.70;99.90
49579;DHT22;35483;50.828;3.228;2024-01-15T08:26:42;2.70;99.90
49579;DHT22;35483;50.828;3.228;2024-01-15T08:29:08;2.80;99.90
49579;DHT22;35483;50.828;3.228;2024-01-15T08:31:34;2.80;99.90
49579;DHT22;35483;50.828;3.228;2024-01-15T08:33:59;3.00;99.90
49579;DHT22;35483;50.828;3.228;2024-01-15T08:36:27;3.00;99.90
49579;DHT22;35483;50.828;3.228;2024-01-15T08:38:55;3.00;99.90
49579;DHT22;35483;50.828;3.228;2024-01-15T08:41:21;3.00;99.90
49579;DHT22;35483;50.828;3.228;2024-01-15T08:43:47;3.00;99.90
49579;DHT22;35483;50.828;3.228;2024-01-15T08:46:13;3.10;99.90
49579;DHT22;35483;50.828;3.228;2024-01-15T08:48:39;3.20;99.90
49579;DHT22;35483;50.828;3.228;2024-01-15T08:51:05;3.20;99.90
49579;DHT22;35483;50.828;3.228;2024-01-15T08:53:31;3.30;99.90
49579;DHT22;35483;50.828;3.228;2024-01-15T08:55:58;3.30;99.90
49579;DHT22;35483;50.828;3.228;2024-01-15T08:58:24;3.30;99.90
49579;DHT22;35483;50.828;3.228;2024-01-15T09:00:50;3.30;99.90
49579;DHT22;35483;50.828;3.228;2024-01-15T09:03:16;3.20;99.90
49579;DHT22;35483;50.828;3.228;2024-01-15T09:05:42;3.20;99.90
49579;DHT22;35483;50.828;3.228;2024-01-15T09:08:08;3.20;99.90
49579;DHT22;35483;50.828;3.228;2024-01-15T09:10:34;3.20;99.90
49579;DHT22;35483;50.828;3.228;2024-01-15T09:13:00;3.20;99.90
49579;DHT22;35483;50.828;3.228;2024-01-15T09:15:25;3.20;99.90
49579;DHT22;35483;50.828;3.228;2024-01-15T09:17:51;3.30;99.90
49579;DHT22;35483;50.828;3.228;2024-01-15T09:20:17;3.30;99.90
49579;DHT22;35483;50.828;3.228;2024-01-15T09:22:43;3.40;99.90
49579;DHT22;35483;50.828;3.228;2024-01-15T09:25:10;3.40;99.90
49579;DHT22;35483;50.828;3.228;2024-01-15T09:27:36;3.40;99.90
49579;DHT22;35483;50.828;3.228;2024-01-15T09:30:03;3.40;99.90
49579;DHT22;35483;50.828;3.228;2024-01-15T09:32:28;3.50;99.90
49579;DHT22;35483;50.828;3.228;2024-01-15T09:34:54;3.60;99.90
49579;DHT22;35483;50.828;3.228;2024-01-15T09:37:21;3.70;99.90
49579;DHT22;35483;50.828;3.228;2024-01-15T09:39:48;3.70;99.90
49579;DHT22;35483;50.828;3.228;2024-01-15T09:42:15;3.70;99.90
49579;DHT22;35483;50.828;3.228;2024-01-15T09:44:41;3.70;99.90
49579;DHT22;35483;50.828;3.228;2024-01-15T09:47:07;3.70;99.90
49579;DHT22;35483;50.828;3.228;2024-01-15T09:49:34;3.70;99.90
49579;DHT22;35483;50.828;3.228;2024-01-15T09:52:01;3.70;99.90
49579;DHT22;35483;50.828;3.228;2024-01-15T09:54:27;3.80;99.90
49579;DHT22;35483;50.828;3.228;2024-01-15T09:56:54;3.80;99.90
49579;DHT22;35483;50.828;3.228;2024-01-15T09:59:20;3.80;99.90
49579;DHT22;35483;50.828;3.228;2024-01-15T10:01:47;3.80;99.90
49579;DHT22;35483;50.828;3.228;2024-01-15T10:04:16;3.90;99.90
49579;DHT22;35483;50.828;3.228;2024-01-15T10:06:45;3.80;99.90
49579;DHT22;35483;50.828;3.228;2024-01-15T10:09:14;3.80;99.90
49579;DHT22;35483;50.828;3.228;2024-01-15T10:11:44;3.90;99.90
49579;DHT22;35483;50.828;3.228;2024-01-15T10:14:11;3.90;99.90
49579;DHT22;35483;50.828;3.228;2024-01-15T10:16:40;4.00;99.90
49579;DHT22;35483;50.828;3.228;2024-01-15T10:19:07;4.00;99.90
49579;DHT22;35483;50.828;3.228;2024-01-15T10:21:33;4.00;99.90
49579;DHT22;35483;50.828;3.228;2024-01-15T10:24:02;4.10;99.90
49579;DHT22;35483;50.828;3.228;2024-01-15T10:26:29;4.10;99.90
49579;DHT22;35483;50.828;3.228;2024-01-15T10:28:55;4.30;99.90
49579;DHT22;35483;50.828;3.228;2024-01-15T10:31:21;4.40;99.90
49579;DHT22;35483;50.828;3.228;2024-01-15T10:33:50;4.60;99.90
49579;DHT22;35483;50.828;3.228;2024-01-15T10:36:16;4.70;99.90
49579;DHT22;35483;50.828;3.228;2024-01-15T10:38:46;4.80;99.90
49579;DHT22;35483;50.828;3.228;2024-01-15T10:41:12;4.90;99.90
49579;DHT22;35483;50.828;3.228;2024-01-15T10:43:38;5.00;99.90
49579;DHT22;35483;50.828;3.228;2024-01-15T10:46:07;5.00;99.90
49579;DHT22;35483;50.828;3.228;2024-01-15T10:48:34;5.00;99.90
49579;DHT22;35483;50.828;3.228;2024-01-15T10:51:01;4.90;99.90
49579;DHT22;35483;50.828;3.228;2024-01-15T10:53:35;4.90;99.90
49579;DHT22;35483;50.828;3.228;2024-01-15T10:56:04;4.70;99.90
49579;DHT22;35483;50.828;3.228;2024-01-15T10:58:31;4.60;99.90
49579;DHT22;35483;50.828;3.228;2024-01-15T11:00:58;4.60;99.90
49579;DHT22;35483;50.828;3.228;2024-01-15T11:03:24;4.60;99.90
49579;DHT22;35483;50.828;3.228;2024-01-15T11:05:51;4.60;99.90
49579;DHT22;35483;50.828;3.228;2024-01-15T11:08:18;4.50;99.90
49579;DHT22;35483;50.828;3.228;2024-01-15T11:10:47;4.60;99.90
49579;DHT22;35483;50.828;3.228;2024-01-15T11:13:21;4.50;99.90
49579;DHT22;35483;50.828;3.228;2024-01-15T11:16:09;4.70;99.90
49579;DHT22;35483;50.828;3.228;2024-01-15T11:18:42;4.80;99.90
49579;DHT22;35483;50.828;3.228;2024-01-15T11:23:58;5.10;99.90
49579;DHT22;35483;50.828;3.228;2024-01-15T11:26:38;5.20;99.90
49579;DHT22;35483;50.828;3.228;2024-01-15T11:29:28;5.30;99.90
49579;DHT22;35483;50.828;3.228;2024-01-15T11:32:01;5.40;99.90
49579;DHT22;35483;50.828;3.228;2024-01-15T11:34:52;5.50;99.90
49579;DHT22;35483;50.828;3.228;2024-01-15T11:37:19;5.50;99.90
49579;DHT22;35483;50.828;3.228;2024-01-15T11:39:45;5.40;99.90
49579;DHT22;35483;50.828;3.228;2024-01-15T11:42:14;5.20;99.90
49579;DHT22;35483;50.828;3.228;2024-01-15T11:44:41;5.30;99.90
49579;DHT22;35483;50.828;3.228;2024-01-15T11:47:11;5.30;99.90
49579;DHT22;35483;50.828;3.228;2024-01-15T11:52:25;5.30;99.90
49579;DHT22;35483;50.828;3.228;2024-01-15T11:57:41;5.40;99.90
49579;DHT22;35483;50.828;3.228;2024-01-15T12:00:09;5.40;99.90
49579;DHT22;35483;50.828;3.228;2024-01-15T12:02:36;5.50;99.90
49579;DHT22;35483;50.828;3.228;2024-01-15T12:05:03;5.60;99.90
49579;DHT22;35483;50.828;3.228;2024-01-15T12:07:28;5.60;99.90
49579;DHT22;35483;50.828;3.228;2024-01-15T12:09:54;5.60;99.90
49579;DHT22;35483;50.828;3.228;2024-01-15T12:13:00;5.60;99.90
49579;DHT22;35483;50.828;3.228;2024-01-15T12:15:27;5.60;99.90
49579;DHT22;35483;50.828;3.228;2024-01-15T12:18:02;5.60;99.90
49579;DHT22;35483;50.828;3.228;2024-01-15T12:20:31;5.50;99.90
49579;DHT22;35483;50.828;3.228;2024-01-15T12:22:58;5.50;99.90
49579;DHT22;35483;50.828;3.228;2024-01-15T12:25:24;5.50;99.90
49579;DHT22;35483;50.828;3.228;2024-01-15T12:27:51;5.60;99.90
49579;DHT22;35483;50.828;3.228;2024-01-15T12:30:17;5.60;99.90
49579;DHT22;35483;50.828;3.228;2024-01-15T12:32:44;5.40;99.90
49579;DHT22;35483;50.828;3.228;2024-01-15T12:35:11;5.40;99.90
49579;DHT22;35483;50.828;3.228;2024-01-15T12:37:38;5.40;99.90
49579;DHT22;35483;50.828;3.228;2024-01-15T12:40:05;5.40;99.90
49579;DHT22;35483;50.828;3.228;2024-01-15T12:42:40;5.30;99.90
49579;DHT22;35483;50.828;3.228;2024-01-15T12:45:06;5.30;99.90
49579;DHT22;35483;50.828;3.228;2024-01-15T12:47:32;5.30;99.90
49579;DHT22;35483;50.828;3.228;2024-01-15T12:49:58;5.30;99.90
49579;DHT22;35483;50.828;3.228;2024-01-15T12:52:29;5.40;99.90
49579;DHT22;35483;50.828;3.228;2024-01-15T12:54:55;5.40;99.90
49579;DHT22;35483;50.828;3.228;2024-01-15T12:57:22;5.50;99.90
49579;DHT22;35483;50.828;3.228;2024-01-15T12:59:48;5.60;99.90
49579;DHT22;35483;50.828;3.228;2024-01-15T13:02:15;5.70;99.90
49579;DHT22;35483;50.828;3.228;2024-01-15T13:04:42;5.80;99.90
49579;DHT22;35483;50.828;3.228;2024-01-15T13:07:08;5.80;99.90
49579;DHT22;35483;50.828;3.228;2024-01-15T13:09:34;5.70;99.90
49579;DHT22;35483;50.828;3.228;2024-01-15T13:12:04;5.60;99.90
49579;DHT22;35483;50.828;3.228;2024-01-15T13:14:31;5.50;99.90
49579;DHT22;35483;50.828;3.228;2024-01-15T13:16:58;5.30;99.90
49579;DHT22;35483;50.828;3.228;2024-01-15T13:19:24;5.40;99.90
49579;DHT22;35483;50.828;3.228;2024-01-15T13:21:49;5.60;99.90
49579;DHT22;35483;50.828;3.228;2024-01-15T13:24:17;5.50;99.90
49579;DHT22;35483;50.828;3.228;2024-01-15T13:26:43;5.50;99.90
49579;DHT22;35483;50.828;3.228;2024-01-15T13:29:09;5.50;99.90
49579;DHT22;35483;50.828;3.228;2024-01-15T13:31:34;5.50;99.90
49579;DHT22;35483;50.828;3.228;2024-01-15T13:34:00;5.60;99.90
49579;DHT22;35483;50.828;3.228;2024-01-15T13:36:27;5.60;99.90
49579;DHT22;35483;50.828;3.228;2024-01-15T13:38:53;5.60;99.90
49579;DHT22;35483;50.828;3.228;2024-01-15T13:41:22;5.70;99.90
49579;DHT22;35483;50.828;3.228;2024-01-15T13:43:53;5.70;99.90
49579;DHT22;35483;50.828;3.228;2024-01-15T13:46:23;5.70;99.90
49579;DHT22;35483;50.828;3.228;2024-01-15T13:48:49;5.80;99.90
49579;DHT22;35483;50.828;3.228;2024-01-15T13:51:15;5.80;99.90
49579;DHT22;35483;50.828;3.228;2024-01-15T13:53:41;5.70;99.90
49579;DHT22;35483;50.828;3.228;2024-01-15T13:56:07;5.70;99.90
49579;DHT22;35483;50.828;3.228;2024-01-15T13:58:36;5.70;99.90
49579;DHT22;35483;50.828;3.228;2024-01-15T14:01:03;5.70;99.90
49579;DHT22;35483;50.828;3.228;2024-01-15T14:03:31;5.70;99.90
49579;DHT22;35483;50.828;3.228;2024-01-15T14:05:58;5.70;99.90
49579;DHT22;35483;50.828;3.228;2024-01-15T14:08:24;5.70;99.90
49579;DHT22;35483;50.828;3.228;2024-01-15T14:10:51;5.60;99.90
49579;DHT22;35483;50.828;3.228;2024-01-15T14:13:17;5.60;99.90
49579;DHT22;35483;50.828;3.228;2024-01-15T14:15:42;5.50;99.90
49579;DHT22;35483;50.828;3.228;2024-01-15T14:18:08;5.40;99.90
49579;DHT22;35483;50.828;3.228;2024-01-15T14:20:34;5.50;99.90
49579;DHT22;35483;50.828;3.228;2024-01-15T14:23:00;5.40;99.90
49579;DHT22;35483;50.828;3.228;2024-01-15T14:25:26;5.30;99.90
49579;DHT22;35483;50.828;3.228;2024-01-15T14:27:51;5.30;99.90
49579;DHT22;35483;50.828;3.228;2024-01-15T14:30:17;5.20;99.90
49579;DHT22;35483;50.828;3.228;2024-01-15T14:32:43;5.10;99.90
49579;DHT22;35483;50.828;3.228;2024-01-15T14:35:09;5.10;99.90
49579;DHT22;35483;50.828;3.228;2024-01-15T14:37:39;5.20;99.90
49579;DHT22;35483;50.828;3.228;2024-01-15T14:40:05;5.20;99.90
49579;DHT22;35483;50.828;3.228;2024-01-15T14:42:33;5.20;99.90
49579;DHT22;35483;50.828;3.228;2024-01-15T14:45:00;5.30;99.90
49579;DHT22;35483;50.828;3.228;2024-01-15T14:47:28;5.30;99.90
49579;DHT22;35483;50.828;3.228;2024-01-15T14:49:54;5.40;99.90
49579;DHT22;35483;50.828;3.228;2024-01-15T14:52:23;5.40;99.90
49579;DHT22;35483;50.828;3.228;2024-01-15T14:54:49;5.40;99.90
49579;DHT22;35483;50.828;3.228;2024-01-15T14:57:15;5.30;99.90
49579;DHT22;35483;50.828;3.228;2024-01-15T14:59:41;5.20;99.90
49579;DHT22;35483;50.828;3.228;2024-01-15T15:02:07;5.00;99.90
49579;DHT22;35483;50.828;3.228;2024-01-15T15:04:33;4.90;99.90
49579;DHT22;35483;50.828;3.228;2024-01-15T15:06:59;4.80;99.90
49579;DHT22;35483;50.828;3.228;2024-01-15T15:09:25;4.80;99.90
49579;DHT22;35483;50.828;3.228;2024-01-15T15:11:51;4.70;99.90
49579;DHT22;35483;50.828;3.228;2024-01-15T15:14:18;4.70;99.90
49579;DHT22;35483;50.828;3.228;2024-01-15T15:16:44;4.60;99.90
49579;DHT22;35483;50.828;3.228;2024-01-15T15:19:12;4.60;99.90
49579;DHT22;35483;50.828;3.228;2024-01-15T15:21:38;4.60;99.90
49579;DHT22;35483;50.828;3.228;2024-01-15T15:24:04;4.50;99.90
49579;DHT22;35483;50.828;3.228;2024-01-15T15:26:29;4.50;99.90
49579;DHT22;35483;50.828;3.228;2024-01-15T15:28:55;4.50;99.90
49579;DHT22;35483;50.828;3.228;2024-01-15T15:31:21;4.50;99.90
49579;DHT22;35483;50.828;3.228;2024-01-15T15:33:46;4.50;99.90
49579;DHT22;35483;50.828;3.228;2024-01-15T15:36:12;4.60;99.90
49579;DHT22;35483;50.828;3.228;2024-01-15T15:38:38;4.70;99.90
49579;DHT22;35483;50.828;3.228;2024-01-15T15:41:04;4.70;99.90
49579;DHT22;35483;50.828;3.228;2024-01-15T15:43:31;4.70;99.90
49579;DHT22;35483;50.828;3.228;2024-01-15T15:45:57;4.70;99.90
49579;DHT22;35483;50.828;3.228;2024-01-15T15:48:25;4.70;99.90
49579;DHT22;35483;50.828;3.228;2024-01-15T15:50:51;4.60;99.90